sensor_id;sensor_type;location;lat;lon;timestamp;pressure;altitude;pressure_sealevel;temperature;humidity
31483;BME280;18103;52.246;8.052;2023-09-30T00:01:26;101214.78;;;14.06;85.71
31483;BME280;18103;52.246;8.052;2023-09-30T00:03:51;101220.22;;;14.04;85.79
31483;BME280;18103;52.246;8.052;2023-09-30T00:06:17;101221.41;;;14.00;85.36
31483;BME280;18103;52.246;8.052;2023-09-30T00:08:45;101226.84;;;13.98;85.84
31483;BME280;18103;52.246;8.052;2023-09-30T00:11:14;101231.91;;;14.01;85.40
31483;BME280;18103;52.246;8.052;2023-09-30T00:13:40;101233.00;;;13.99;85.61
31483;BME280;18103;52.246;8.052;2023-09-30T00:16:08;101224.19;;;13.98;85.69
31483;BME280;18103;52.246;8.052;2023-09-30T00:18:33;101231.31;;;13.98;85.50
31483;BME280;18103;52.246;8.052;2023-09-30T00:21:00;101224.56;;;13.94;86.04
31483;BME280;18103;52.246;8.052;2023-09-30T00:23:26;101228.19;;;13.93;85.81
31483;BME280;18103;52.246;8.052;2023-09-30T00:25:54;101231.06;;;13.90;86.49
31483;BME280;18103;52.246;8.052;2023-09-30T00:28:19;101225.78;;;13.90;86.13
31483;BME280;18103;52.246;8.052;2023-09-30T00:30:44;101242.53;;;13.90;86.29
31483;BME280;18103;52.246;8.052;2023-09-30T00:33:12;101247.13;;;13.88;86.21
31483;BME280;18103;52.246;8.052;2023-09-30T00:35:38;101244.69;;;13.85;86.42
31483;BME280;18103;52.246;8.052;2023-09-30T00:38:04;101237.59;;;13.85;86.43
31483;BME280;18103;52.246;8.052;2023-09-30T00:40:29;101251.09;;;13.82;86.32
31483;BME280;18103;52.246;8.052;2023-09-30T00:42:57;101248.44;;;13.82;86.49
31483;BME280;18103;52.246;8.052;2023-09-30T00:45:22;101247.59;;;13.82;86.25
31483;BME280;18103;52.246;8.052;2023-09-30T00:47:48;101248.91;;;13.76;86.76
31483;BME280;18103;52.246;8.052;2023-09-30T00:50:19;101261.09;;;13.79;86.23
31483;BME280;18103;52.246;8.052;2023-09-30T00:52:46;101258.94;;;13.84;85.61
31483;BME280;18103;52.246;8.052;2023-09-30T00:55:14;101259.41;;;13.78;86.42
31483;BME280;18103;52.246;8.052;2023-09-30T00:57:42;101241.81;;;13.77;86.46
31483;BME280;18103;52.246;8.052;2023-09-30T01:00:10;101237.22;;;13.79;86.24
31483;BME280;18103;52.246;8.052;2023-09-30T01:02:39;101236.50;;;13.77;86.13
31483;BME280;18103;52.246;8.052;2023-09-30T01:05:09;101236.72;;;13.74;86.25
31483;BME280;18103;52.246;8.052;2023-09-30T01:07:34;101244.09;;;13.70;86.91
31483;BME280;18103;52.246;8.052;2023-09-30T01:10:00;101240.81;;;13.78;85.88
31483;BME280;18103;52.246;8.052;2023-09-30T01:12:26;101235.63;;;13.76;86.18
31483;BME280;18103;52.246;8.052;2023-09-30T01:14:57;101243.59;;;13.76;86.16
31483;BME280;18103;52.246;8.052;2023-09-30T01:17:22;101227.56;;;13.78;86.75
31483;BME280;18103;52.246;8.052;2023-09-30T01:19:49;101235.53;;;13.78;86.25
31483;BME280;18103;52.246;8.052;2023-09-30T01:22:15;101239.75;;;13.80;86.50
31483;BME280;18103;52.246;8.052;2023-09-30T01:24:43;101231.66;;;13.82;85.81
31483;BME280;18103;52.246;8.052;2023-09-30T01:27:09;101235.19;;;13.82;86.24
31483;BME280;18103;52.246;8.052;2023-09-30T01:29:35;101236.97;;;13.82;86.20
31483;BME280;18103;52.246;8.052;2023-09-30T01:32:04;101243.25;;;13.81;86.20
31483;BME280;18103;52.246;8.052;2023-09-30T01:34:30;101239.38;;;13.85;86.13
31483;BME280;18103;52.246;8.052;2023-09-30T01:36:58;101238.53;;;13.84;84.86
31483;BME280;18103;52.246;8.052;2023-09-30T01:39:25;101236.84;;;13.83;86.20
31483;BME280;18103;52.246;8.052;2023-09-30T01:41:51;101248.22;;;13.85;86.39
31483;BME280;18103;52.246;8.052;2023-09-30T01:44:16;101250.00;;;13.85;86.15
31483;BME280;18103;52.246;8.052;2023-09-30T01:46:42;101243.97;;;13.83;86.34
31483;BME280;18103;52.246;8.052;2023-09-30T01:49:07;101252.66;;;13.85;86.26
31483;BME280;18103;52.246;8.052;2023-09-30T01:51:32;101240.50;;;13.82;86.29
31483;BME280;18103;52.246;8.052;2023-09-30T01:54:00;101243.72;;;13.86;87.32
31483;BME280;18103;52.246;8.052;2023-09-30T01:56:25;101241.19;;;13.84;85.71
31483;BME280;18103;52.246;8.052;2023-09-30T01:58:53;101250.72;;;13.87;85.91
31483;BME280;18103;52.246;8.052;2023-09-30T02:01:21;101259.66;;;13.86;85.35
31483;BME280;18103;52.246;8.052;2023-09-30T02:03:46;101259.78;;;13.84;86.33
31483;BME280;18103;52.246;8.052;2023-09-30T02:06:12;101261.47;;;13.85;85.95
31483;BME280;18103;52.246;8.052;2023-09-30T02:08:37;101258.06;;;13.83;86.14
31483;BME280;18103;52.246;8.052;2023-09-30T02:11:03;101264.38;;;13.82;86.00
31483;BME280;18103;52.246;8.052;2023-09-30T02:13:34;101259.66;;;13.86;86.40
31483;BME280;18103;52.246;8.052;2023-09-30T02:16:00;101266.78;;;13.85;86.74
31483;BME280;18103;52.246;8.052;2023-09-30T02:18:25;101259.53;;;13.88;86.31
31483;BME280;18103;52.246;8.052;2023-09-30T02:20:51;101258.94;;;13.84;86.02
31483;BME280;18103;52.246;8.052;2023-09-30T02:23:18;101273.03;;;13.84;85.68
31483;BME280;18103;52.246;8.052;2023-09-30T02:25:46;101270.63;;;13.81;85.93
31483;BME280;18103;52.246;8.052;2023-09-30T02:28:14;101260.59;;;13.85;86.01
31483;BME280;18103;52.246;8.052;2023-09-30T02:30:42;101252.56;;;13.86;85.87
31483;BME280;18103;52.246;8.052;2023-09-30T02:33:09;101261.59;;;13.84;86.11
31483;BME280;18103;52.246;8.052;2023-09-30T02:35:35;101258.06;;;13.83;86.40
31483;BME280;18103;52.246;8.052;2023-09-30T02:38:04;101261.72;;;13.82;85.47
31483;BME280;18103;52.246;8.052;2023-09-30T02:40:30;101274.00;;;13.83;86.19
31483;BME280;18103;52.246;8.052;2023-09-30T02:42:55;101278.34;;;13.84;85.67
31483;BME280;18103;52.246;8.052;2023-09-30T02:45:21;101277.63;;;13.82;85.93
31483;BME280;18103;52.246;8.052;2023-09-30T02:47:48;101282.09;;;13.82;85.57
31483;BME280;18103;52.246;8.052;2023-09-30T02:50:16;101275.94;;;13.81;86.50
31483;BME280;18103;52.246;8.052;2023-09-30T02:52:46;101286.31;;;13.84;86.31
31483;BME280;18103;52.246;8.052;2023-09-30T02:55:12;101286.31;;;13.84;85.92
31483;BME280;18103;52.246;8.052;2023-09-30T02:57:38;101281.13;;;13.83;86.23
31483;BME280;18103;52.246;8.052;2023-09-30T03:00:08;101275.81;;;13.83;86.22
31483;BME280;18103;52.246;8.052;2023-09-30T03:02:49;101265.09;;;13.84;85.74
31483;BME280;18103;52.246;8.052;2023-09-30T03:05:21;101267.97;;;13.81;86.11
31483;BME280;18103;52.246;8.052;2023-09-30T03:07:49;101273.41;;;13.80;85.85
31483;BME280;18103;52.246;8.052;2023-09-30T03:10:18;101257.63;;;13.78;86.18
31483;BME280;18103;52.246;8.052;2023-09-30T03:12:47;101261.94;;;13.79;86.41
31483;BME280;18103;52.246;8.052;2023-09-30T03:15:12;101246.75;;;13.81;86.37
31483;BME280;18103;52.246;8.052;2023-09-30T03:17:38;101256.41;;;13.82;85.56
31483;BME280;18103;52.246;8.052;2023-09-30T03:20:06;101254.59;;;13.83;85.93
31483;BME280;18103;52.246;8.052;2023-09-30T03:22:38;101266.16;;;13.82;85.83
31483;BME280;18103;52.246;8.052;2023-09-30T03:25:04;101264.38;;;13.82;86.01
31483;BME280;18103;52.246;8.052;2023-09-30T03:27:33;101273.28;;;13.81;85.95
31483;BME280;18103;52.246;8.052;2023-09-30T03:29:58;101280.41;;;13.81;85.46
31483;BME280;18103;52.246;8.052;2023-09-30T03:32:26;101282.44;;;13.77;85.75
31483;BME280;18103;52.246;8.052;2023-09-30T03:34:54;101281.38;;;13.80;86.59
31483;BME280;18103;52.246;8.052;2023-09-30T03:37:24;101281.13;;;13.83;86.24
31483;BME280;18103;52.246;8.052;2023-09-30T03:39:53;101271.72;;;13.79;85.96
31483;BME280;18103;52.246;8.052;2023-09-30T03:42:18;101277.03;;;13.79;85.59
31483;BME280;18103;52.246;8.052;2023-09-30T03:44:44;101281.50;;;13.78;85.63
31483;BME280;18103;52.246;8.052;2023-09-30T03:47:15;101280.63;;;13.78;85.77
31483;BME280;18103;52.246;8.052;2023-09-30T03:49:42;101281.50;;;13.78;85.80
31483;BME280;18103;52.246;8.052;2023-09-30T03:52:10;101279.78;;;13.77;85.76
31483;BME280;18103;52.246;8.052;2023-09-30T03:54:36;101283.16;;;13.79;86.25
31483;BME280;18103;52.246;8.052;2023-09-30T03:57:06;101276.41;;;13.75;86.30
31483;BME280;18103;52.246;8.052;2023-09-30T03:59:32;101267.47;;;13.76;86.06
31483;BME280;18103;52.246;8.052;2023-09-30T04:02:02;101263.13;;;13.75;85.94
31483;BME280;18103;52.246;8.052;2023-09-30T04:04:27;101264.94;;;13.75;85.58
31483;BME280;18103;52.246;8.052;2023-09-30T04:06:55;101263.25;;;13.74;85.56
31483;BME280;18103;52.246;8.052;2023-09-30T04:09:23;101263.38;;;13.72;85.73
31483;BME280;18103;52.246;8.052;2023-09-30T04:11:51;101254.22;;;13.76;85.63
31483;BME280;18103;52.246;8.052;2023-09-30T04:14:16;101264.00;;;13.76;85.59
31483;BME280;18103;52.246;8.052;2023-09-30T04:16:42;101256.03;;;13.76;85.86
31483;BME280;18103;52.246;8.052;2023-09-30T04:19:10;101257.81;;;13.75;85.69
31483;BME280;18103;52.246;8.052;2023-09-30T04:21:35;101260.47;;;13.75;85.59
31483;BME280;18103;52.246;8.052;2023-09-30T04:24:04;101257.13;;;13.73;85.62
31483;BME280;18103;52.246;8.052;2023-09-30T04:26:30;101259.75;;;13.73;85.78
31483;BME280;18103;52.246;8.052;2023-09-30T04:28:55;101261.59;;;13.73;85.31
31483;BME280;18103;52.246;8.052;2023-09-30T04:31:22;101263.50;;;13.71;85.00
31483;BME280;18103;52.246;8.052;2023-09-30T04:33:49;101266.88;;;13.73;85.63
31483;BME280;18103;52.246;8.052;2023-09-30T04:36:18;101272.41;;;13.69;85.81
31483;BME280;18103;52.246;8.052;2023-09-30T04:38:43;101274.09;;;13.71;84.83
31483;BME280;18103;52.246;8.052;2023-09-30T04:41:09;101274.09;;;13.71;85.23
31483;BME280;18103;52.246;8.052;2023-09-30T04:43:35;101273.03;;;13.73;85.88
31483;BME280;18103;52.246;8.052;2023-09-30T04:46:01;101281.13;;;13.72;85.76
31483;BME280;18103;52.246;8.052;2023-09-30T04:48:30;101282.69;;;13.74;85.67
31483;BME280;18103;52.246;8.052;2023-09-30T04:50:59;101281.94;;;13.72;86.08
31483;BME280;18103;52.246;8.052;2023-09-30T04:53:24;101279.28;;;13.72;85.48
31483;BME280;18103;52.246;8.052;2023-09-30T04:55:54;101279.41;;;13.71;86.12
31483;BME280;18103;52.246;8.052;2023-09-30T04:58:22;101277.00;;;13.67;85.80
31483;BME280;18103;52.246;8.052;2023-09-30T05:00:49;101279.53;;;13.69;85.63
31483;BME280;18103;52.246;8.052;2023-09-30T05:03:16;101278.81;;;13.67;86.42
31483;BME280;18103;52.246;8.052;2023-09-30T05:05:42;101292.81;;;13.69;85.45
31483;BME280;18103;52.246;8.052;2023-09-30T05:08:07;101282.19;;;13.69;85.77
31483;BME280;18103;52.246;8.052;2023-09-30T05:10:33;101278.81;;;13.67;86.18
31483;BME280;18103;52.246;8.052;2023-09-30T05:12:58;101284.00;;;13.68;85.25
31483;BME280;18103;52.246;8.052;2023-09-30T05:15:24;101269.88;;;13.68;85.83
31483;BME280;18103;52.246;8.052;2023-09-30T05:17:54;101277.72;;;13.69;85.61
31483;BME280;18103;52.246;8.052;2023-09-30T05:20:19;101284.47;;;13.74;85.82
31483;BME280;18103;52.246;8.052;2023-09-30T05:22:47;101287.13;;;13.74;85.26
31483;BME280;18103;52.246;8.052;2023-09-30T05:25:14;101295.34;;;13.71;86.25
31483;BME280;18103;52.246;8.052;2023-09-30T05:27:46;101293.53;;;13.71;85.52
31483;BME280;18103;52.246;8.052;2023-09-30T05:30:14;101290.03;;;13.71;85.85
31483;BME280;18103;52.246;8.052;2023-09-30T05:32:44;101297.88;;;13.72;85.71
31483;BME280;18103;52.246;8.052;2023-09-30T05:35:14;101292.31;;;13.75;85.55
31483;BME280;18103;52.246;8.052;2023-09-30T05:37:42;101299.44;;;13.75;85.76
31483;BME280;18103;52.246;8.052;2023-09-30T05:40:10;101302.59;;;13.68;85.73
31483;BME280;18103;52.246;8.052;2023-09-30T05:42:47;101301.50;;;13.71;85.74
31483;BME280;18103;52.246;8.052;2023-09-30T05:45:13;101309.22;;;13.74;85.67
31483;BME280;18103;52.246;8.052;2023-09-30T05:47:41;101310.41;;;13.70;85.52
31483;BME280;18103;52.246;8.052;2023-09-30T05:50:08;101315.84;;;13.68;86.00
31483;BME280;18103;52.246;8.052;2023-09-30T05:52:41;101310.19;;;13.73;85.85
31483;BME280;18103;52.246;8.052;2023-09-30T05:55:07;101320.78;;;13.73;86.18
31483;BME280;18103;52.246;8.052;2023-09-30T05:57:32;101325.28;;;13.73;85.59
31483;BME280;18103;52.246;8.052;2023-09-30T06:00:02;101329.81;;;13.71;85.33
31483;BME280;18103;52.246;8.052;2023-09-30T06:02:46;101322.72;;;13.71;85.77
31483;BME280;18103;52.246;8.052;2023-09-30T06:05:14;101325.72;;;13.66;86.18
31483;BME280;18103;52.246;8.052;2023-09-30T06:07:41;101328.13;;;13.69;85.25
31483;BME280;18103;52.246;8.052;2023-09-30T06:10:10;101321.28;;;13.67;84.96
31483;BME280;18103;52.246;8.052;2023-09-30T06:12:36;101327.19;;;13.71;86.05
31483;BME280;18103;52.246;8.052;2023-09-30T06:15:02;101333.44;;;13.69;86.61
31483;BME280;18103;52.246;8.052;2023-09-30T06:17:30;101334.53;;;13.67;86.34
31483;BME280;18103;52.246;8.052;2023-09-30T06:19:56;101333.56;;;13.68;85.38
31483;BME280;18103;52.246;8.052;2023-09-30T06:22:32;101334.41;;;13.68;85.28
31483;BME280;18103;52.246;8.052;2023-09-30T06:24:57;101341.31;;;13.71;85.46
31483;BME280;18103;52.246;8.052;2023-09-30T06:27:23;101335.13;;;13.71;86.29
31483;BME280;18103;52.246;8.052;2023-09-30T06:29:51;101337.53;;;13.74;86.55
31483;BME280;18103;52.246;8.052;2023-09-30T06:32:16;101348.81;;;13.89;85.74
31483;BME280;18103;52.246;8.052;2023-09-30T06:34:42;101346.91;;;13.91;85.99
31483;BME280;18103;52.246;8.052;2023-09-30T06:37:08;101349.78;;;13.99;86.32
31483;BME280;18103;52.246;8.052;2023-09-30T06:39:35;101357.41;;;14.03;86.10
31483;BME280;18103;52.246;8.052;2023-09-30T06:42:01;101356.56;;;14.14;86.05
31483;BME280;18103;52.246;8.052;2023-09-30T06:44:26;101356.25;;;14.30;86.10
31483;BME280;18103;52.246;8.052;2023-09-30T06:46:56;101356.72;;;14.47;84.13
31483;BME280;18103;52.246;8.052;2023-09-30T06:49:21;101352.50;;;14.44;84.92
31483;BME280;18103;52.246;8.052;2023-09-30T06:51:47;101355.03;;;14.46;85.00
31483;BME280;18103;52.246;8.052;2023-09-30T06:54:15;101360.34;;;14.57;85.28
31483;BME280;18103;52.246;8.052;2023-09-30T06:56:40;101363.75;;;14.59;85.03
31483;BME280;18103;52.246;8.052;2023-09-30T06:59:06;101365.81;;;14.67;84.34
31483;BME280;18103;52.246;8.052;2023-09-30T07:01:31;101367.00;;;14.74;85.06
31483;BME280;18103;52.246;8.052;2023-09-30T07:04:00;101371.47;;;14.85;84.50
31483;BME280;18103;52.246;8.052;2023-09-30T07:06:26;101372.28;;;14.97;84.48
31483;BME280;18103;52.246;8.052;2023-09-30T07:08:54;101369.84;;;15.05;84.32
31483;BME280;18103;52.246;8.052;2023-09-30T07:11:29;101377.47;;;15.10;84.32
31483;BME280;18103;52.246;8.052;2023-09-30T07:13:59;101377.66;;;15.18;83.85
31483;BME280;18103;52.246;8.052;2023-09-30T07:16:27;101376.66;;;15.30;83.52
31483;BME280;18103;52.246;8.052;2023-09-30T07:18:55;101375.44;;;15.34;83.49
31483;BME280;18103;52.246;8.052;2023-09-30T07:21:20;101380.97;;;15.43;83.77
31483;BME280;18103;52.246;8.052;2023-09-30T07:23:46;101380.94;;;15.54;83.13
31483;BME280;18103;52.246;8.052;2023-09-30T07:26:15;101376.78;;;15.61;83.29
31483;BME280;18103;52.246;8.052;2023-09-30T07:28:40;101376.75;;;15.72;83.26
31483;BME280;18103;52.246;8.052;2023-09-30T07:31:05;101378.25;;;15.86;82.96
31483;BME280;18103;52.246;8.052;2023-09-30T07:33:33;101385.41;;;15.86;82.91
31483;BME280;18103;52.246;8.052;2023-09-30T07:35:58;101382.00;;;15.95;82.35
31483;BME280;18103;52.246;8.052;2023-09-30T07:38:24;101394.22;;;15.98;82.64
31483;BME280;18103;52.246;8.052;2023-09-30T07:40:49;101400.16;;;16.11;82.86
31483;BME280;18103;52.246;8.052;2023-09-30T07:43:15;101400.50;;;16.18;82.44
31483;BME280;18103;52.246;8.052;2023-09-30T07:45:43;101397.44;;;16.22;82.30
31483;BME280;18103;52.246;8.052;2023-09-30T07:48:10;101401.09;;;16.31;82.67
31483;BME280;18103;52.246;8.052;2023-09-30T07:50:38;101403.31;;;16.47;82.15
31483;BME280;18103;52.246;8.052;2023-09-30T07:53:06;101408.69;;;16.57;82.11
31483;BME280;18103;52.246;8.052;2023-09-30T07:55:34;101405.19;;;16.56;81.79
31483;BME280;18103;52.246;8.052;2023-09-30T07:57:59;101414.50;;;16.72;81.67
31483;BME280;18103;52.246;8.052;2023-09-30T08:00:26;101415.09;;;16.85;81.72
31483;BME280;18103;52.246;8.052;2023-09-30T08:02:51;101426.88;;;16.83;81.67
31483;BME280;18103;52.246;8.052;2023-09-30T08:05:17;101418.13;;;16.92;81.78
31483;BME280;18103;52.246;8.052;2023-09-30T08:07:45;101420.81;;;17.02;81.13
31483;BME280;18103;52.246;8.052;2023-09-30T08:10:13;101437.84;;;17.20;80.36
31483;BME280;18103;52.246;8.052;2023-09-30T08:12:42;101432.06;;;17.15;80.38
31483;BME280;18103;52.246;8.052;2023-09-30T08:15:11;101425.09;;;17.24;80.18
31483;BME280;18103;52.246;8.052;2023-09-30T08:17:41;101440.09;;;17.25;79.99
31483;BME280;18103;52.246;8.052;2023-09-30T08:20:07;101440.97;;;17.45;80.44
31483;BME280;18103;52.246;8.052;2023-09-30T08:22:34;101444.06;;;17.31;79.66
31483;BME280;18103;52.246;8.052;2023-09-30T08:24:59;101435.06;;;17.51;80.25
31483;BME280;18103;52.246;8.052;2023-09-30T08:27:25;101434.94;;;17.62;80.03
31483;BME280;18103;52.246;8.052;2023-09-30T08:29:50;101432.56;;;17.69;79.49
31483;BME280;18103;52.246;8.052;2023-09-30T08:32:18;101443.38;;;17.68;79.35
31483;BME280;18103;52.246;8.052;2023-09-30T08:34:46;101441.97;;;17.83;80.22
31483;BME280;18103;52.246;8.052;2023-09-30T08:37:16;101450.53;;;17.48;78.07
31483;BME280;18103;52.246;8.052;2023-09-30T08:39:42;101445.22;;;17.48;78.26
31483;BME280;18103;52.246;8.052;2023-09-30T08:42:09;101442.53;;;17.38;77.19
31483;BME280;18103;52.246;8.052;2023-09-30T08:44:38;101448.56;;;17.40;77.87
31483;BME280;18103;52.246;8.052;2023-09-30T08:47:08;101447.56;;;17.31;77.44
31483;BME280;18103;52.246;8.052;2023-09-30T08:49:37;101459.66;;;17.35;77.54
31483;BME280;18103;52.246;8.052;2023-09-30T08:52:05;101458.69;;;17.46;77.68
31483;BME280;18103;52.246;8.052;2023-09-30T08:54:31;101454.06;;;17.68;77.68
31483;BME280;18103;52.246;8.052;2023-09-30T08:57:00;101452.22;;;17.68;77.18
31483;BME280;18103;52.246;8.052;2023-09-30T08:59:26;101447.47;;;17.62;78.04
31483;BME280;18103;52.246;8.052;2023-09-30T09:01:55;101446.03;;;17.58;77.57
31483;BME280;18103;52.246;8.052;2023-09-30T09:04:23;101452.09;;;17.60;77.24
31483;BME280;18103;52.246;8.052;2023-09-30T09:06:49;101451.81;;;17.73;77.41
31483;BME280;18103;52.246;8.052;2023-09-30T09:09:17;101446.78;;;17.79;77.54
31483;BME280;18103;52.246;8.052;2023-09-30T09:11:45;101443.81;;;17.53;76.94
31483;BME280;18103;52.246;8.052;2023-09-30T09:14:10;101443.97;;;17.61;76.63
31483;BME280;18103;52.246;8.052;2023-09-30T09:16:36;101443.53;;;17.56;76.46
31483;BME280;18103;52.246;8.052;2023-09-30T09:19:14;101444.09;;;17.50;76.51
31483;BME280;18103;52.246;8.052;2023-09-30T09:24:37;101449.84;;;17.75;76.69
31483;BME280;18103;52.246;8.052;2023-09-30T09:27:12;101455.91;;;17.77;76.73
31483;BME280;18103;52.246;8.052;2023-09-30T09:29:41;101448.88;;;18.05;76.98
31483;BME280;18103;52.246;8.052;2023-09-30T09:32:19;101447.06;;;17.96;76.65
31483;BME280;18103;52.246;8.052;2023-09-30T09:34:45;101448.03;;;18.15;76.30
31483;BME280;18103;52.246;8.052;2023-09-30T09:39:52;101445.06;;;18.27;76.88
31483;BME280;18103;52.246;8.052;2023-09-30T09:42:31;101441.13;;;18.32;76.18
31483;BME280;18103;52.246;8.052;2023-09-30T09:45:03;101445.03;;;18.37;75.83
31483;BME280;18103;52.246;8.052;2023-09-30T09:47:34;101438.13;;;18.44;75.39
31483;BME280;18103;52.246;8.052;2023-09-30T09:50:04;101426.44;;;18.45;74.05
31483;BME280;18103;52.246;8.052;2023-09-30T09:52:34;101442.09;;;18.30;75.74
31483;BME280;18103;52.246;8.052;2023-09-30T09:55:00;101431.78;;;18.45;75.45
31483;BME280;18103;52.246;8.052;2023-09-30T09:57:30;101434.56;;;18.63;74.12
31483;BME280;18103;52.246;8.052;2023-09-30T09:59:58;101435.50;;;18.72;74.84
31483;BME280;18103;52.246;8.052;2023-09-30T10:02:25;101442.59;;;18.91;72.99
31483;BME280;18103;52.246;8.052;2023-09-30T10:04:54;101450.75;;;19.00;73.64
31483;BME280;18103;52.246;8.052;2023-09-30T10:07:37;101448.88;;;19.10;73.75
31483;BME280;18103;52.246;8.052;2023-09-30T10:10:07;101451.44;;;19.02;73.32
31483;BME280;18103;52.246;8.052;2023-09-30T10:12:37;101443.78;;;19.07;73.04
31483;BME280;18103;52.246;8.052;2023-09-30T10:20:28;101451.44;;;19.02;73.63
31483;BME280;18103;52.246;8.052;2023-09-30T10:25:40;101449.34;;;19.23;72.27
31483;BME280;18103;52.246;8.052;2023-09-30T10:28:34;101441.16;;;19.25;73.95
31483;BME280;18103;52.246;8.052;2023-09-30T10:36:37;101437.13;;;19.39;73.02
31483;BME280;18103;52.246;8.052;2023-09-30T10:39:11;101439.50;;;19.60;72.27
31483;BME280;18103;52.246;8.052;2023-09-30T10:46:48;101444.34;;;19.56;69.50
31483;BME280;18103;52.246;8.052;2023-09-30T10:49:35;101442.19;;;19.78;69.61
31483;BME280;18103;52.246;8.052;2023-09-30T10:52:04;101440.16;;;19.90;68.23
31483;BME280;18103;52.246;8.052;2023-09-30T10:54:31;101456.00;;;20.01;69.28
31483;BME280;18103;52.246;8.052;2023-09-30T10:56:59;101455.19;;;20.09;67.61
31483;BME280;18103;52.246;8.052;2023-09-30T10:59:28;101457.53;;;20.04;67.65
31483;BME280;18103;52.246;8.052;2023-09-30T11:01:56;101452.34;;;20.10;69.59
31483;BME280;18103;52.246;8.052;2023-09-30T11:04:21;101451.16;;;20.31;68.36
31483;BME280;18103;52.246;8.052;2023-09-30T11:06:51;101464.03;;;20.01;68.06
31483;BME280;18103;52.246;8.052;2023-09-30T11:09:20;101458.19;;;19.70;69.71
31483;BME280;18103;52.246;8.052;2023-09-30T11:11:51;101463.97;;;19.93;69.78
31483;BME280;18103;52.246;8.052;2023-09-30T11:14:18;101459.19;;;19.69;70.69
31483;BME280;18103;52.246;8.052;2023-09-30T11:16:46;101459.22;;;19.87;69.57
31483;BME280;18103;52.246;8.052;2023-09-30T11:19:12;101466.41;;;19.86;68.21
31483;BME280;18103;52.246;8.052;2023-09-30T11:21:41;101463.94;;;19.75;67.40
31483;BME280;18103;52.246;8.052;2023-09-30T11:24:09;101466.75;;;19.73;68.55
31483;BME280;18103;52.246;8.052;2023-09-30T11:26:34;101470.53;;;19.98;66.21
31483;BME280;18103;52.246;8.052;2023-09-30T11:29:17;101465.81;;;19.92;66.30
31483;BME280;18103;52.246;8.052;2023-09-30T11:31:44;101454.03;;;19.75;68.26
31483;BME280;18103;52.246;8.052;2023-09-30T11:34:10;101451.84;;;20.07;66.48
31483;BME280;18103;52.246;8.052;2023-09-30T11:36:51;101449.44;;;20.22;66.05
31483;BME280;18103;52.246;8.052;2023-09-30T11:41:49;101449.25;;;20.41;64.57
31483;BME280;18103;52.246;8.052;2023-09-30T11:44:15;101436.72;;;20.50;65.47
31483;BME280;18103;52.246;8.052;2023-09-30T11:46:55;101440.06;;;20.52;65.33
31483;BME280;18103;52.246;8.052;2023-09-30T11:51:54;101434.03;;;20.50;66.00
31483;BME280;18103;52.246;8.052;2023-09-30T11:54:20;101434.25;;;20.57;65.97
31483;BME280;18103;52.246;8.052;2023-09-30T11:56:47;101432.22;;;20.59;64.69
31483;BME280;18103;52.246;8.052;2023-09-30T11:59:13;101427.47;;;20.71;63.94
31483;BME280;18103;52.246;8.052;2023-09-30T12:01:38;101423.47;;;20.83;62.76
31483;BME280;18103;52.246;8.052;2023-09-30T12:04:04;101419.97;;;20.82;63.67
31483;BME280;18103;52.246;8.052;2023-09-30T12:06:29;101410.06;;;20.83;64.25
31483;BME280;18103;52.246;8.052;2023-09-30T12:08:59;101418.53;;;21.05;64.63
31483;BME280;18103;52.246;8.052;2023-09-30T12:11:24;101414.28;;;20.94;64.32
31483;BME280;18103;52.246;8.052;2023-09-30T12:13:51;101409.94;;;21.01;64.34
31483;BME280;18103;52.246;8.052;2023-09-30T12:16:17;101402.44;;;21.13;63.07
31483;BME280;18103;52.246;8.052;2023-09-30T12:18:42;101402.09;;;21.08;64.04
31483;BME280;18103;52.246;8.052;2023-09-30T12:21:12;101396.66;;;20.91;63.81
31483;BME280;18103;52.246;8.052;2023-09-30T12:23:39;101401.41;;;20.97;65.71
31483;BME280;18103;52.246;8.052;2023-09-30T12:26:04;101400.69;;;20.87;65.08
31483;BME280;18103;52.246;8.052;2023-09-30T12:28:33;101389.44;;;20.83;63.72
31483;BME280;18103;52.246;8.052;2023-09-30T12:30:59;101390.97;;;20.94;62.51
31483;BME280;18103;52.246;8.052;2023-09-30T12:33:27;101392.97;;;20.84;61.95
31483;BME280;18103;52.246;8.052;2023-09-30T12:35:53;101387.63;;;20.92;63.25
31483;BME280;18103;52.246;8.052;2023-09-30T12:38:18;101390.75;;;20.71;63.18
31483;BME280;18103;52.246;8.052;2023-09-30T12:40:44;101390.59;;;20.81;63.99
31483;BME280;18103;52.246;8.052;2023-09-30T12:43:09;101398.09;;;20.69;63.44
31483;BME280;18103;52.246;8.052;2023-09-30T12:45:37;101388.16;;;20.61;63.65
31483;BME280;18103;52.246;8.052;2023-09-30T12:48:05;101390.19;;;20.67;62.61
31483;BME280;18103;52.246;8.052;2023-09-30T12:50:35;101378.09;;;20.63;63.11
31483;BME280;18103;52.246;8.052;2023-09-30T12:53:01;101387.31;;;20.61;63.56
31483;BME280;18103;52.246;8.052;2023-09-30T12:55:26;101378.75;;;20.57;63.85
31483;BME280;18103;52.246;8.052;2023-09-30T12:57:54;101373.25;;;20.32;63.37
31483;BME280;18103;52.246;8.052;2023-09-30T13:00:19;101370.22;;;20.27;64.17
31483;BME280;18103;52.246;8.052;2023-09-30T13:02:47;101375.34;;;20.55;63.89
31483;BME280;18103;52.246;8.052;2023-09-30T13:05:13;101376.31;;;20.72;63.73
31483;BME280;18103;52.246;8.052;2023-09-30T13:07:39;101377.22;;;20.89;63.22
31483;BME280;18103;52.246;8.052;2023-09-30T13:10:04;101380.88;;;20.80;62.28
31483;BME280;18103;52.246;8.052;2023-09-30T13:12:33;101381.38;;;20.75;64.69
31483;BME280;18103;52.246;8.052;2023-09-30T13:14:59;101378.16;;;20.72;63.53
31483;BME280;18103;52.246;8.052;2023-09-30T13:17:24;101369.63;;;20.76;64.59
31483;BME280;18103;52.246;8.052;2023-09-30T13:19:51;101369.59;;;20.68;64.01
31483;BME280;18103;52.246;8.052;2023-09-30T13:22:17;101367.94;;;20.75;64.29